Time;durP1;ratioP1;P1;durP2;ratioP2;P2;SDS_P1;SDS_P2;PMS_P1;PMS_P2;Temp;Humidity;BMP_temperature;BMP_pressure;BME280_temperature;BME280_humidity;BME280_pressure;Samples;Min_cycle;Max_cycle;Signal;HPM_P1;HPM_P2
2022/07/20 00:00:11;;;;;;;;;;;26.70;36.30;;;;;;4999741;28;20008;-81
2022/07/20 00:02:37;;;;;;;;;;;26.70;36.30;;;;;;4999938;28;20008;-82
2022/07/20 00:05:05;;;;;;;;;;;26.70;36.40;;;;;;4999888;28;20394;-82
2022/07/20 00:07:32;;;;;;;;;;;26.70;36.50;;;;;;4999963;28;19980;-82
2022/07/20 00:12:43;;;;;;;;;;;26.70;36.70;;;;;;4999503;28;19933;-82
2022/07/20 00:15:10;;;;;;;;;;;26.70;36.80;;;;;;4999204;28;20020;-81
2022/07/20 00:17:37;;;;;;;;;;;26.70;36.80;;;;;;4999328;28;20359;-81
2022/07/20 00:20:04;;;;;;;;;;;26.70;36.90;;;;;;4999930;28;19932;-82
2022/07/20 00:22:31;;;;;;;;;;;26.70;37.00;;;;;;4999473;28;19933;-82
2022/07/20 00:24:57;;;;;;;;;;;26.70;37.10;;;;;;4999373;28;19982;-81
2022/07/20 00:27:24;;;;;;;;;;;26.70;37.20;;;;;;4999693;28;20024;-82
2022/07/20 00:29:52;;;;;;;;;;;26.70;37.20;;;;;;4999107;28;19965;-82
2022/07/20 00:32:19;;;;;;;;;;;26.70;37.20;;;;;;4998978;28;19925;-82
2022/07/20 00:34:45;;;;;;;;;;;26.70;37.20;;;;;;4999728;28;19961;-82
2022/07/20 00:37:12;;;;;;;;;;;26.70;37.20;;;;;;5000229;28;20340;-82
2022/07/20 00:39:39;;;;;;;;;;;26.70;37.20;;;;;;4998503;28;20360;-81
2022/07/20 00:42:06;;;;;;;;;;;26.70;37.20;;;;;;4999226;28;20013;-81
2022/07/20 00:44:32;;;;;;;;;;;26.70;37.20;;;;;;4998300;28;20362;-81
2022/07/20 00:47:00;;;;;;;;;;;26.70;37.20;;;;;;4998497;28;19988;-81
2022/07/20 00:49:27;;;;;;;;;;;26.70;37.20;;;;;;4998651;28;19925;-81
2022/07/20 00:51:54;;;;;;;;;;;26.70;37.20;;;;;;4998248;28;20405;-81
2022/07/20 00:54:21;;;;;;;;;;;26.70;37.30;;;;;;4998274;28;20024;-81
2022/07/20 00:56:47;;;;;;;;;;;26.70;37.50;;;;;;4998453;28;20016;-81
2022/07/20 00:59:14;;;;;;;;;;;26.70;37.60;;;;;;4998570;28;20012;-81
2022/07/20 01:01:41;;;;;;;;;;;26.70;37.60;;;;;;4998199;28;19961;-81
2022/07/20 01:04:09;;;;;;;;;;;26.70;37.70;;;;;;4998372;28;20036;-81
2022/07/20 01:06:35;;;;;;;;;;;26.70;37.80;;;;;;4998167;28;20464;-81
2022/07/20 01:09:02;;;;;;;;;;;26.70;37.80;;;;;;4998414;28;19932;-81
2022/07/20 01:11:29;;;;;;;;;;;26.70;37.90;;;;;;4997766;28;19961;-81
2022/07/20 01:14:00;;;;;;;;;;;26.70;38.00;;;;;;4998029;28;20013;-81
2022/07/20 01:16:27;;;;;;;;;;;26.70;38.00;;;;;;4997709;28;20013;-81
2022/07/20 01:18:54;;;;;;;;;;;26.70;38.20;;;;;;4998011;28;19980;-82
2022/07/20 01:21:22;;;;;;;;;;;26.70;38.20;;;;;;4997511;28;20016;-81
2022/07/20 01:23:48;;;;;;;;;;;26.70;38.30;;;;;;4997510;28;19932;-81
2022/07/20 01:26:16;;;;;;;;;;;26.70;38.30;;;;;;4997479;28;19926;-82
2022/07/20 01:28:43;;;;;;;;;;;26.70;38.40;;;;;;4998368;28;19925;-82
2022/07/20 01:31:09;;;;;;;;;;;26.70;38.50;;;;;;4997882;28;20023;-82
2022/07/20 01:33:36;;;;;;;;;;;26.70;38.50;;;;;;4998300;28;19961;-81
2022/07/20 01:36:03;;;;;;;;;;;26.70;38.60;;;;;;4997774;28;20016;-82
2022/07/20 01:38:31;;;;;;;;;;;26.70;38.70;;;;;;4997242;28;19976;-81
2022/07/20 01:40:58;;;;;;;;;;;26.70;38.70;;;;;;4997368;28;20021;-82
2022/07/20 01:43:24;;;;;;;;;;;26.70;38.80;;;;;;4997492;28;20016;-82
2022/07/20 01:45:51;;;;;;;;;;;26.70;38.80;;;;;;4997037;28;20353;-82
2022/07/20 01:48:17;;;;;;;;;;;26.70;38.90;;;;;;4997850;28;20066;-82
2022/07/20 01:50:44;;;;;;;;;;;26.60;38.90;;;;;;4997752;28;20037;-82
2022/07/20 01:53:11;;;;;;;;;;;26.70;39.00;;;;;;4997343;28;19973;-82
2022/07/20 01:55:39;;;;;;;;;;;26.70;39.00;;;;;;4997072;28;20409;-82
2022/07/20 01:58:05;;;;;;;;;;;26.70;39.10;;;;;;4997154;28;20013;-82
2022/07/20 02:00:32;;;;;;;;;;;26.70;39.10;;;;;;4998468;28;20013;-82
2022/07/20 02:02:59;;;;;;;;;;;26.70;39.20;;;;;;5001486;28;20354;-82
2022/07/20 02:05:26;;;;;;;;;;;26.70;39.30;;;;;;5000793;28;20408;-81
2022/07/20 02:07:52;;;;;;;;;;;26.60;39.20;;;;;;5000613;28;20364;-81
2022/07/20 02:10:19;;;;;;;;;;;26.60;39.30;;;;;;5001062;28;19985;-81
2022/07/20 02:12:47;;;;;;;;;;;26.60;39.30;;;;;;5000997;28;20020;-81
2022/07/20 02:16:14;;;;;;;;;;;26.60;39.40;;;;;;5000628;28;20125;-82
2022/07/20 02:18:05;;;;;;;;;;;26.60;39.50;;;;;;5000788;28;19925;-82
2022/07/20 02:20:31;;;;;;;;;;;26.60;39.50;;;;;;5001260;28;19926;-82
2022/07/20 02:22:58;;;;;;;;;;;26.60;39.50;;;;;;5001215;28;20021;-82
2022/07/20 02:25:25;;;;;;;;;;;26.60;39.60;;;;;;5000930;28;20029;-82
2022/07/20 02:27:53;;;;;;;;;;;26.60;39.60;;;;;;5001600;28;20020;-82
2022/07/20 02:30:19;;;;;;;;;;;26.60;39.60;;;;;;5001058;28;20020;-81
2022/07/20 02:32:46;;;;;;;;;;;26.60;39.70;;;;;;5000907;28;19925;-81
2022/07/20 02:35:13;;;;;;;;;;;26.60;39.70;;;;;;5000638;28;19949;-81
2022/07/20 02:37:40;;;;;;;;;;;26.60;39.80;;;;;;5000560;28;20016;-81
2022/07/20 02:40:10;;;;;;;;;;;26.60;39.80;;;;;;5000499;28;20377;-81
2022/07/20 02:42:36;;;;;;;;;;;26.60;39.80;;;;;;5000055;28;20016;-78
2022/07/20 02:45:05;;;;;;;;;;;26.60;39.90;;;;;;5000672;28;20370;-78
2022/07/20 02:47:32;;;;;;;;;;;26.60;39.90;;;;;;4999953;28;20391;-78
2022/07/20 02:50:00;;;;;;;;;;;26.60;40.00;;;;;;4999931;28;20329;-78
2022/07/20 02:52:27;;;;;;;;;;;26.60;40.00;;;;;;5000984;28;20025;-78
2022/07/20 02:54:54;;;;;;;;;;;26.60;40.10;;;;;;5000590;28;19977;-78
2022/07/20 02:57:20;;;;;;;;;;;26.60;40.10;;;;;;4999671;28;20008;-78
2022/07/20 02:59:47;;;;;;;;;;;26.60;40.10;;;;;;4999718;28;20374;-78
2022/07/20 03:02:15;;;;;;;;;;;26.60;40.20;;;;;;5002740;28;19997;-78
2022/07/20 03:04:42;;;;;;;;;;;26.60;40.20;;;;;;5005554;28;19993;-79
2022/07/20 03:07:09;;;;;;;;;;;26.60;40.30;;;;;;5000889;28;20420;-78
2022/07/20 03:09:35;;;;;;;;;;;26.60;40.30;;;;;;5001485;28;20405;-78
2022/07/20 03:12:02;;;;;;;;;;;26.60;40.40;;;;;;5002335;28;20420;-78
2022/07/20 03:14:29;;;;;;;;;;;26.60;40.40;;;;;;5002363;28;20001;-78
2022/07/20 03:16:55;;;;;;;;;;;26.60;40.50;;;;;;5001869;28;20016;-79
2022/07/20 03:19:23;;;;;;;;;;;26.60;40.50;;;;;;5004900;28;19960;-79
2022/07/20 03:21:50;;;;;;;;;;;26.60;40.60;;;;;;5006035;28;19990;-79
2022/07/20 03:24:17;;;;;;;;;;;26.60;40.60;;;;;;5005160;28;19925;-78
2022/07/20 03:26:44;;;;;;;;;;;26.60;40.60;;;;;;5002568;28;19984;-78
2022/07/20 03:29:10;;;;;;;;;;;26.60;40.70;;;;;;5003846;28;19926;-78
2022/07/20 03:31:37;;;;;;;;;;;26.60;40.70;;;;;;5006533;28;19965;-79
2022/07/20 03:34:04;;;;;;;;;;;26.60;40.80;;;;;;5004878;28;19949;-79
2022/07/20 03:36:32;;;;;;;;;;;26.60;40.80;;;;;;5003879;28;20016;-78
2022/07/20 03:38:58;;;;;;;;;;;26.60;40.90;;;;;;5001880;28;20009;-78
2022/07/20 03:41:25;;;;;;;;;;;26.60;40.90;;;;;;5000269;28;19988;-78
2022/07/20 03:43:51;;;;;;;;;;;26.60;41.00;;;;;;5002082;28;20021;-78
2022/07/20 03:46:18;;;;;;;;;;;26.60;41.10;;;;;;5002609;28;19926;-78
2022/07/20 03:48:45;;;;;;;;;;;26.60;41.10;;;;;;5002454;28;19997;-78
2022/07/20 03:51:12;;;;;;;;;;;26.60;41.20;;;;;;5003266;28;20016;-78
2022/07/20 03:53:40;;;;;;;;;;;26.60;41.20;;;;;;4999347;28;19941;-77
2022/07/20 03:56:07;;;;;;;;;;;26.60;41.30;;;;;;4998611;28;19965;-77
2022/07/20 03:58:33;;;;;;;;;;;26.60;41.30;;;;;;4998336;28;19926;-76
2022/07/20 04:01:00;;;;;;;;;;;26.60;41.40;;;;;;4998107;28;19957;-77
2022/07/20 04:03:27;;;;;;;;;;;26.60;41.40;;;;;;4996968;28;20024;-77
2022/07/20 04:05:53;;;;;;;;;;;26.60;41.50;;;;;;4997562;28;20013;-77
2022/07/20 04:08:20;;;;;;;;;;;26.60;41.50;;;;;;4997470;28;20013;-77
2022/07/20 04:10:48;;;;;;;;;;;26.60;41.50;;;;;;4996878;28;19932;-77
2022/07/20 04:13:15;;;;;;;;;;;26.60;41.60;;;;;;4996793;28;20012;-76
2022/07/20 04:15:41;;;;;;;;;;;26.60;41.70;;;;;;4996444;28;20020;-76
2022/07/20 04:18:08;;;;;;;;;;;26.60;41.70;;;;;;4999485;28;19976;-77
2022/07/20 04:20:35;;;;;;;;;;;26.60;41.80;;;;;;4996209;28;19972;-77
2022/07/20 04:23:01;;;;;;;;;;;26.60;41.80;;;;;;4995611;28;20020;-77
2022/07/20 04:25:28;;;;;;;;;;;26.60;41.90;;;;;;4994603;28;19926;-77
2022/07/20 04:27:58;;;;;;;;;;;26.60;41.90;;;;;;4999622;28;19968;-82
2022/07/20 04:30:24;;;;;;;;;;;26.60;42.00;;;;;;5000604;28;19925;-82
2022/07/20 04:32:51;;;;;;;;;;;26.60;42.00;;;;;;5000172;28;19965;-81
2022/07/20 04:35:18;;;;;;;;;;;26.60;42.10;;;;;;4999943;28;19989;-82
2022/07/20 04:37:44;;;;;;;;;;;26.60;42.10;;;;;;5000218;28;19972;-83
2022/07/20 04:40:11;;;;;;;;;;;26.60;42.20;;;;;;4999858;28;20024;-83
2022/07/20 04:42:38;;;;;;;;;;;26.60;42.30;;;;;;4999468;28;19953;-84
2022/07/20 04:45:07;;;;;;;;;;;26.60;42.30;;;;;;5000423;28;19965;-83
2022/07/20 04:47:33;;;;;;;;;;;26.60;42.30;;;;;;5000130;28;19977;-82
2022/07/20 04:50:00;;;;;;;;;;;26.60;42.30;;;;;;4999833;28;20012;-82
2022/07/20 04:52:27;;;;;;;;;;;26.60;42.30;;;;;;5000244;28;19964;-84
2022/07/20 04:54:53;;;;;;;;;;;26.60;42.30;;;;;;5001126;28;20004;-84
2022/07/20 04:57:20;;;;;;;;;;;26.60;42.30;;;;;;5000384;28;19965;-82
2022/07/20 04:59:46;;;;;;;;;;;26.60;42.30;;;;;;4999872;28;19973;-82
2022/07/20 05:02:14;;;;;;;;;;;26.60;42.30;;;;;;4999540;28;19965;-81
2022/07/20 05:04:41;;;;;;;;;;;26.60;42.30;;;;;;4998569;28;19926;-80
2022/07/20 05:07:08;;;;;;;;;;;26.60;42.30;;;;;;4998502;28;20008;-80
2022/07/20 05:09:34;;;;;;;;;;;26.60;42.30;;;;;;4998432;28;20016;-81
2022/07/20 05:12:01;;;;;;;;;;;26.50;42.20;;;;;;4998121;28;19925;-81
2022/07/20 05:14:28;;;;;;;;;;;26.60;42.30;;;;;;4998164;28;19980;-81
2022/07/20 05:16:54;;;;;;;;;;;26.60;42.30;;;;;;4997918;28;20020;-81
2022/07/20 05:19:22;;;;;;;;;;;26.50;42.20;;;;;;4997060;28;19957;-80
2022/07/20 05:21:49;;;;;;;;;;;26.50;42.20;;;;;;4996855;28;19926;-81
2022/07/20 05:24:16;;;;;;;;;;;26.50;42.20;;;;;;4996270;28;19925;-80
2022/07/20 05:26:42;;;;;;;;;;;26.50;42.20;;;;;;4996303;28;20408;-80
2022/07/20 05:29:09;;;;;;;;;;;26.50;42.20;;;;;;4996677;28;19926;-80
2022/07/20 05:31:36;;;;;;;;;;;26.50;42.20;;;;;;4996667;28;20016;-81
2022/07/20 05:34:03;;;;;;;;;;;26.50;42.20;;;;;;4996873;28;19938;-80
2022/07/20 05:36:31;;;;;;;;;;;26.50;42.20;;;;;;4996772;28;19961;-80
2022/07/20 05:38:57;;;;;;;;;;;26.50;42.20;;;;;;4996891;28;20002;-80
2022/07/20 05:41:24;;;;;;;;;;;26.50;42.20;;;;;;4996847;28;19972;-80
2022/07/20 05:43:51;;;;;;;;;;;26.50;42.20;;;;;;4996591;28;19933;-80
2022/07/20 05:46:17;;;;;;;;;;;26.50;42.20;;;;;;4995190;28;19933;-79
2022/07/20 05:48:44;;;;;;;;;;;26.50;42.20;;;;;;4995160;28;19932;-80
2022/07/20 05:51:11;;;;;;;;;;;26.50;42.20;;;;;;4995716;28;19932;-79
2022/07/20 05:53:39;;;;;;;;;;;26.50;42.20;;;;;;4995549;28;20404;-80
2022/07/20 05:56:06;;;;;;;;;;;26.50;42.20;;;;;;4995793;28;19926;-80
2022/07/20 05:58:33;;;;;;;;;;;26.50;42.20;;;;;;4995465;28;19930;-80
2022/07/20 06:01:00;;;;;;;;;;;26.50;42.20;;;;;;4995610;28;20025;-80
2022/07/20 06:03:26;;;;;;;;;;;26.50;42.20;;;;;;4995857;28;19969;-81
2022/07/20 06:05:53;;;;;;;;;;;26.50;42.20;;;;;;4995298;28;19969;-81
2022/07/20 06:08:20;;;;;;;;;;;26.50;42.20;;;;;;4995544;28;19930;-79
2022/07/20 06:10:48;;;;;;;;;;;26.50;42.20;;;;;;4995394;28;20028;-80
2022/07/20 06:13:14;;;;;;;;;;;26.50;42.10;;;;;;4995399;28;19926;-81
2022/07/20 06:15:41;;;;;;;;;;;26.40;42.00;;;;;;4995014;28;19972;-80
2022/07/20 06:18:08;;;;;;;;;;;26.40;41.90;;;;;;4995113;28;19926;-80
2022/07/20 06:20:35;;;;;;;;;;;26.40;41.90;;;;;;4995151;28;19972;-80
2022/07/20 06:23:01;;;;;;;;;;;26.40;41.80;;;;;;4995450;28;19976;-80
2022/07/20 06:25:28;;;;;;;;;;;26.40;41.80;;;;;;4995059;28;19926;-80
2022/07/20 06:27:58;;;;;;;;;;;26.40;41.80;;;;;;4995416;28;19932;-80
2022/07/20 06:30:25;;;;;;;;;;;26.40;42.30;;;;;;4995326;28;20030;-80
2022/07/20 06:32:52;;;;;;;;;;;26.40;41.70;;;;;;4995304;28;20266;-80
2022/07/20 06:35:18;;;;;;;;;;;26.40;41.60;;;;;;4994961;28;19995;-80
2022/07/20 06:37:45;;;;;;;;;;;26.40;41.60;;;;;;4994997;28;19932;-80
2022/07/20 06:40:12;;;;;;;;;;;26.40;41.50;;;;;;4998709;28;19926;-80
2022/07/20 06:42:39;;;;;;;;;;;26.40;41.50;;;;;;5000239;28;20374;-79
2022/07/20 06:45:08;;;;;;;;;;;26.40;41.50;;;;;;4999932;28;19926;-79
2022/07/20 06:47:35;;;;;;;;;;;26.40;41.40;;;;;;4995850;28;19933;-81
2022/07/20 06:50:03;;;;;;;;;;;26.40;41.40;;;;;;5000369;28;19932;-81
2022/07/20 06:52:30;;;;;;;;;;;26.40;41.40;;;;;;4999604;28;19929;-81
2022/07/20 06:54:57;;;;;;;;;;;26.40;41.30;;;;;;4999484;28;19948;-81
2022/07/20 06:57:24;;;;;;;;;;;26.40;41.30;;;;;;4999491;28;19972;-81
2022/07/20 06:59:50;;;;;;;;;;;26.40;41.30;;;;;;4999408;28;19957;-80
2022/07/20 07:02:18;;;;;;;;;;;26.40;41.20;;;;;;4999959;28;20453;-80
2022/07/20 07:04:45;;;;;;;;;;;26.40;41.20;;;;;;4999779;28;20289;-81
2022/07/20 07:07:12;;;;;;;;;;;26.40;41.10;;;;;;4999647;28;20330;-81
2022/07/20 07:09:38;;;;;;;;;;;26.40;41.10;;;;;;4999849;28;20020;-81
2022/07/20 07:12:05;;;;;;;;;;;26.40;41.10;;;;;;5000216;28;20021;-81
2022/07/20 07:14:32;;;;;;;;;;;26.40;41.00;;;;;;4999641;28;19996;-80
2022/07/20 07:16:59;;;;;;;;;;;26.40;41.00;;;;;;4999723;28;19960;-81
2022/07/20 07:19:27;;;;;;;;;;;26.40;41.00;;;;;;4999497;28;19967;-81
2022/07/20 07:21:53;;;;;;;;;;;26.40;41.00;;;;;;4999805;28;19969;-81
2022/07/20 07:24:20;;;;;;;;;;;26.40;40.90;;;;;;4999233;28;19979;-81
2022/07/20 07:26:47;;;;;;;;;;;26.40;40.90;;;;;;4999076;28;19925;-81
2022/07/20 07:29:14;;;;;;;;;;;26.40;40.90;;;;;;4998989;28;20020;-81
2022/07/20 07:31:41;;;;;;;;;;;26.40;40.90;;;;;;4999142;28;19929;-81
2022/07/20 07:34:07;;;;;;;;;;;26.40;40.90;;;;;;4999628;28;19952;-80
2022/07/20 07:36:35;;;;;;;;;;;26.40;40.80;;;;;;4999296;28;19948;-80
2022/07/20 07:39:02;;;;;;;;;;;26.40;40.80;;;;;;4998573;28;19926;-81
2022/07/20 07:41:29;;;;;;;;;;;26.40;40.70;;;;;;4999062;28;20412;-81
2022/07/20 07:43:55;;;;;;;;;;;26.40;40.70;;;;;;4998443;28;20361;-81
2022/07/20 07:46:22;;;;;;;;;;;26.40;40.70;;;;;;4998959;28;19985;-81
2022/07/20 07:48:48;;;;;;;;;;;26.40;40.70;;;;;;4998716;28;20020;-81
2022/07/20 07:51:15;;;;;;;;;;;26.40;40.70;;;;;;4999098;28;20271;-81
2022/07/20 07:53:43;;;;;;;;;;;26.40;40.70;;;;;;4998455;28;19984;-80
2022/07/20 07:56:10;;;;;;;;;;;26.50;40.80;;;;;;4998677;28;20012;-81
2022/07/20 07:58:36;;;;;;;;;;;26.50;40.80;;;;;;4998310;28;19933;-81
2022/07/20 08:01:03;;;;;;;;;;;26.50;40.80;;;;;;4998055;28;20001;-81
2022/07/20 08:03:30;;;;;;;;;;;26.50;40.70;;;;;;4998172;28;19932;-80
2022/07/20 08:05:57;;;;;;;;;;;26.50;40.70;;;;;;4997849;28;20385;-80
2022/07/20 08:08:23;;;;;;;;;;;26.50;40.70;;;;;;4998205;28;19929;-80
2022/07/20 08:10:51;;;;;;;;;;;26.50;40.70;;;;;;4998216;28;20046;-80
2022/07/20 08:13:18;;;;;;;;;;;26.50;40.70;;;;;;4998874;28;20028;-81
2022/07/20 08:15:45;;;;;;;;;;;26.50;40.70;;;;;;4998499;28;19972;-80
2022/07/20 08:18:11;;;;;;;;;;;26.50;40.70;;;;;;4998463;28;19965;-80
2022/07/20 08:20:38;;;;;;;;;;;26.50;40.70;;;;;;4998382;28;20013;-81
2022/07/20 08:23:05;;;;;;;;;;;26.50;40.70;;;;;;4998058;28;19926;-81
2022/07/20 08:25:32;;;;;;;;;;;26.50;40.70;;;;;;4999251;28;19926;-81
2022/07/20 08:28:11;;;;;;;;;;;26.50;40.70;;;;;;4998171;28;19926;-80
2022/07/20 08:30:38;;;;;;;;;;;26.50;40.70;;;;;;4998501;28;19933;-81
2022/07/20 08:33:04;;;;;;;;;;;26.60;40.80;;;;;;4998081;28;20468;-81
2022/07/20 08:35:31;;;;;;;;;;;26.60;40.80;;;;;;4998290;28;19930;-81
2022/07/20 08:37:58;;;;;;;;;;;26.60;40.80;;;;;;4998514;28;20012;-80
2022/07/20 08:40:25;;;;;;;;;;;26.60;40.70;;;;;;5022002;23;19932;-80
2022/07/20 08:42:52;;;;;;;;;;;26.60;40.80;;;;;;4997270;28;19977;-80
2022/07/20 08:45:20;;;;;;;;;;;26.60;40.70;;;;;;4997545;28;19932;-80
2022/07/20 08:47:47;;;;;;;;;;;26.60;40.70;;;;;;4997406;28;20292;-80
2022/07/20 08:50:13;;;;;;;;;;;26.60;40.80;;;;;;4997396;28;19973;-80
2022/07/20 08:52:40;;;;;;;;;;;26.60;40.80;;;;;;4997529;28;20016;-80
2022/07/20 08:55:09;;;;;;;;;;;26.60;40.90;;;;;;4997102;28;19932;-80
2022/07/20 08:57:36;;;;;;;;;;;26.60;40.90;;;;;;4997064;28;19925;-80
2022/07/20 09:00:04;;;;;;;;;;;26.70;40.90;;;;;;4996602;28;19969;-80
2022/07/20 09:02:47;;;;;;;;;;;26.60;40.90;;;;;;4997282;28;19933;-80
2022/07/20 09:05:14;;;;;;;;;;;26.70;41.00;;;;;;4997190;28;20371;-80
2022/07/20 09:07:41;;;;;;;;;;;26.70;41.00;;;;;;4997151;28;20020;-80
2022/07/20 09:10:10;;;;;;;;;;;26.70;41.00;;;;;;4996399;28;20012;-80
2022/07/20 09:12:53;;;;;;;;;;;26.70;41.10;;;;;;4996772;28;19926;-80
2022/07/20 09:15:41;;;;;;;;;;;26.70;41.10;;;;;;4997065;28;19974;-80
2022/07/20 09:18:11;;;;;;;;;;;26.70;41.10;;;;;;4992125;28;19997;-80
2022/07/20 09:20:39;;;;;;;;;;;26.70;41.10;;;;;;4996972;28;20020;-80
2022/07/20 09:23:07;;;;;;;;;;;26.70;41.10;;;;;;4996743;28;20020;-80
2022/07/20 09:25:34;;;;;;;;;;;26.70;41.10;;;;;;4996642;28;19961;-80
2022/07/20 09:28:01;;;;;;;;;;;26.70;41.10;;;;;;4996067;28;20012;-80
2022/07/20 09:30:28;;;;;;;;;;;26.80;41.20;;;;;;4996608;28;21260;-80
2022/07/20 09:32:56;;;;;;;;;;;26.70;41.20;;;;;;4996807;28;20016;-80
2022/07/20 09:35:25;;;;;;;;;;;26.80;41.20;;;;;;4997512;28;19932;-80
2022/07/20 09:37:52;;;;;;;;;;;26.80;41.20;;;;;;4997177;28;20452;-80
2022/07/20 09:40:18;;;;;;;;;;;26.80;41.20;;;;;;4996668;28;20028;-80
2022/07/20 09:42:46;;;;;;;;;;;26.80;41.30;;;;;;4997029;28;19932;-80
2022/07/20 09:45:21;;;;;;;;;;;26.80;41.30;;;;;;4996772;28;19925;-80
2022/07/20 09:48:07;;;;;;;;;;;26.80;41.30;;;;;;4996767;28;20021;-80
2022/07/20 09:50:36;;;;;;;;;;;26.80;41.30;;;;;;4996844;28;19926;-80
2022/07/20 09:53:03;;;;;;;;;;;26.90;41.50;;;;;;4997172;28;20016;-80
2022/07/20 09:55:31;;;;;;;;;;;26.90;41.50;;;;;;4996581;28;20044;-80
2022/07/20 09:57:58;;;;;;;;;;;26.90;41.50;;;;;;4996512;28;20446;-80
2022/07/20 10:00:25;;;;;;;;;;;26.90;41.50;;;;;;4996649;28;20351;-80
2022/07/20 10:02:53;;;;;;;;;;;26.90;41.50;;;;;;4996505;28;19930;-80
2022/07/20 10:05:20;;;;;;;;;;;26.90;41.60;;;;;;4996701;28;19925;-80
2022/07/20 10:07:48;;;;;;;;;;;26.90;41.60;;;;;;4997317;28;19925;-79
2022/07/20 10:10:15;;;;;;;;;;;26.90;41.70;;;;;;4995976;28;19976;-78
2022/07/20 10:12:42;;;;;;;;;;;27.00;41.80;;;;;;4996772;28;20020;-78
2022/07/20 10:15:11;;;;;;;;;;;27.00;41.80;;;;;;4996115;28;19926;-79
2022/07/20 10:17:39;;;;;;;;;;;27.00;41.90;;;;;;4996301;28;20049;-79
2022/07/20 10:20:08;;;;;;;;;;;27.00;41.90;;;;;;4996242;28;19926;-79
2022/07/20 10:22:35;;;;;;;;;;;27.00;41.90;;;;;;4996513;28;20016;-79
2022/07/20 10:25:17;;;;;;;;;;;27.00;41.90;;;;;;4999428;28;20447;-79
2022/07/20 10:27:44;;;;;;;;;;;27.00;42.00;;;;;;4998826;28;19925;-79
2022/07/20 10:30:17;;;;;;;;;;;27.00;42.00;;;;;;4999318;28;19932;-79
2022/07/20 10:32:52;;;;;;;;;;;27.10;42.10;;;;;;5001160;28;20351;-79
2022/07/20 10:35:26;;;;;;;;;;;27.10;42.20;;;;;;5000876;28;19926;-79
2022/07/20 10:37:53;;;;;;;;;;;27.00;42.20;;;;;;5000996;28;19932;-79
2022/07/20 10:40:22;;;;;;;;;;;27.10;42.30;;;;;;5000900;28;20008;-79
2022/07/20 10:42:50;;;;;;;;;;;27.10;42.30;;;;;;5001108;28;19925;-79
2022/07/20 10:45:44;;;;;;;;;;;27.10;42.40;;;;;;5000815;28;19926;-79
2022/07/20 10:48:20;;;;;;;;;;;27.10;42.40;;;;;;5001166;28;19965;-79
2022/07/20 10:50:48;;;;;;;;;;;27.10;42.50;;;;;;5001781;28;19988;-79
2022/07/20 10:53:33;;;;;;;;;;;27.10;42.60;;;;;;5001373;28;20296;-79
2022/07/20 10:56:03;;;;;;;;;;;27.10;42.60;;;;;;5000924;28;20012;-79
2022/07/20 10:58:31;;;;;;;;;;;27.10;42.60;;;;;;5000673;28;19925;-79
2022/07/20 11:00:58;;;;;;;;;;;27.10;42.60;;;;;;5000889;28;19984;-79
2022/07/20 11:03:27;;;;;;;;;;;27.20;42.60;;;;;;5001090;28;19980;-79
2022/07/20 11:06:05;;;;;;;;;;;27.20;43.20;;;;;;5001103;28;19934;-79
2022/07/20 11:08:32;;;;;;;;;;;27.20;42.70;;;;;;5001902;28;20008;-80
2022/07/20 11:10:58;;;;;;;;;;;27.20;42.70;;;;;;4999952;28;19993;-79
2022/07/20 11:13:27;;;;;;;;;;;27.20;42.60;;;;;;5001125;28;20012;-80
2022/07/20 11:15:54;;;;;;;;;;;27.20;42.60;;;;;;5000689;28;19965;-79
2022/07/20 11:18:22;;;;;;;;;;;27.20;42.70;;;;;;5001560;28;20448;-79
2022/07/20 11:20:49;;;;;;;;;;;27.20;42.60;;;;;;5000887;28;19980;-79
2022/07/20 11:23:16;;;;;;;;;;;27.20;42.60;;;;;;5000385;28;20016;-79
2022/07/20 11:25:47;;;;;;;;;;;27.20;42.60;;;;;;4999820;28;19926;-79
2022/07/20 11:28:14;;;;;;;;;;;27.30;42.70;;;;;;5000733;28;19965;-79
2022/07/20 11:30:42;;;;;;;;;;;27.20;42.60;;;;;;5000210;28;20016;-79
2022/07/20 11:33:09;;;;;;;;;;;27.30;42.70;;;;;;4999560;28;19926;-79
2022/07/20 11:35:36;;;;;;;;;;;27.30;42.70;;;;;;5000418;28;19968;-79
2022/07/20 11:38:03;;;;;;;;;;;27.30;42.70;;;;;;5000339;28;20382;-79
2022/07/20 11:40:29;;;;;;;;;;;27.30;43.30;;;;;;4998916;28;20016;-80
2022/07/20 11:43:09;;;;;;;;;;;27.30;42.70;;;;;;4999433;28;19964;-80
2022/07/20 11:45:35;;;;;;;;;;;27.30;42.70;;;;;;4998880;28;20004;-80
2022/07/20 11:48:15;;;;;;;;;;;27.30;42.70;;;;;;4999144;28;20486;-80
2022/07/20 11:50:41;;;;;;;;;;;27.30;42.70;;;;;;4998651;28;20020;-80
2022/07/20 11:53:21;;;;;;;;;;;27.30;42.70;;;;;;4998859;28;20449;-80
2022/07/20 11:55:48;;;;;;;;;;;27.30;42.70;;;;;;4998968;28;19926;-80
2022/07/20 11:58:15;;;;;;;;;;;27.30;42.70;;;;;;4998588;28;19933;-80
2022/07/20 12:00:42;;;;;;;;;;;27.30;42.70;;;;;;4999320;28;19961;-80
2022/07/20 12:03:10;;;;;;;;;;;27.30;42.70;;;;;;4999189;28;19932;-80
2022/07/20 12:05:37;;;;;;;;;;;27.30;42.70;;;;;;4998639;28;20348;-80
2022/07/20 12:08:13;;;;;;;;;;;27.30;42.60;;;;;;4998954;28;20016;-81
2022/07/20 12:10:42;;;;;;;;;;;27.30;42.60;;;;;;4998730;28;19976;-80
2022/07/20 12:13:09;;;;;;;;;;;27.30;42.50;;;;;;4998457;28;19926;-79
2022/07/20 12:15:36;;;;;;;;;;;27.30;42.50;;;;;;4997522;28;20025;-79
2022/07/20 12:18:03;;;;;;;;;;;27.30;42.60;;;;;;4998478;28;20486;-80
2022/07/20 12:20:32;;;;;;;;;;;27.40;42.70;;;;;;4998570;28;19926;-79
2022/07/20 12:22:59;;;;;;;;;;;27.40;42.60;;;;;;4998049;28;19926;-80
2022/07/20 12:25:35;;;;;;;;;;;27.40;42.50;;;;;;4998623;28;20020;-80
2022/07/20 12:28:01;;;;;;;;;;;27.40;42.40;;;;;;4998664;28;20303;-80
2022/07/20 12:30:30;;;;;;;;;;;27.40;42.90;;;;;;4998584;28;20016;-80
2022/07/20 12:33:04;;;;;;;;;;;27.40;42.20;;;;;;4998783;28;19926;-79
2022/07/20 12:35:32;;;;;;;;;;;27.40;42.10;;;;;;4998716;28;20373;-78
2022/07/20 12:37:59;;;;;;;;;;;27.40;42.00;;;;;;4997870;28;19973;-78
2022/07/20 12:40:33;;;;;;;;;;;27.40;42.00;;;;;;4997585;28;20036;-78
2022/07/20 12:43:01;;;;;;;;;;;27.40;41.90;;;;;;4997055;28;20216;-78
2022/07/20 12:45:28;;;;;;;;;;;27.40;41.80;;;;;;4996390;28;19953;-78
2022/07/20 12:47:55;;;;;;;;;;;27.40;41.70;;;;;;4999693;28;20016;-79
2022/07/20 12:50:21;;;;;;;;;;;27.50;41.70;;;;;;4998656;28;20368;-79
2022/07/20 12:52:49;;;;;;;;;;;27.50;41.70;;;;;;4998973;28;19975;-78
2022/07/20 12:55:16;;;;;;;;;;;27.50;41.60;;;;;;4997734;28;19932;-79
2022/07/20 12:57:43;;;;;;;;;;;27.50;41.60;;;;;;4998048;28;19932;-78
2022/07/20 13:00:10;;;;;;;;;;;27.50;41.60;;;;;;4997441;28;19926;-78
2022/07/20 13:02:37;;;;;;;;;;;27.60;41.60;;;;;;4997301;28;19926;-78
2022/07/20 13:05:04;;;;;;;;;;;27.60;41.50;;;;;;4997632;28;19972;-78
2022/07/20 13:07:30;;;;;;;;;;;27.60;41.50;;;;;;4997524;28;19926;-78
2022/07/20 13:09:58;;;;;;;;;;;27.60;41.50;;;;;;4997046;28;19932;-78
2022/07/20 13:12:25;;;;;;;;;;;27.60;41.40;;;;;;4997159;28;20004;-78
2022/07/20 13:14:52;;;;;;;;;;;27.60;41.40;;;;;;4997137;28;19980;-79
2022/07/20 13:17:18;;;;;;;;;;;27.70;41.40;;;;;;4997420;28;20424;-79
2022/07/20 13:19:45;;;;;;;;;;;27.70;41.30;;;;;;4996970;28;20359;-79
2022/07/20 13:22:12;;;;;;;;;;;27.70;41.30;;;;;;4996990;28;19933;-79
2022/07/20 13:24:39;;;;;;;;;;;27.70;41.80;;;;;;4997286;28;19925;-79
2022/07/20 13:27:07;;;;;;;;;;;27.70;41.20;;;;;;4997075;28;19977;-78
2022/07/20 13:29:33;;;;;;;;;;;27.70;41.10;;;;;;4996953;28;20016;-78
2022/07/20 13:32:00;;;;;;;;;;;27.70;41.10;;;;;;4997251;28;19980;-79
2022/07/20 13:34:27;;;;;;;;;;;27.70;41.00;;;;;;4997539;28;20021;-78
2022/07/20 13:36:53;;;;;;;;;;;27.80;41.10;;;;;;4997947;28;20039;-79
2022/07/20 13:39:20;;;;;;;;;;;27.80;41.00;;;;;;4996927;28;20008;-79
2022/07/20 13:41:47;;;;;;;;;;;27.80;41.00;;;;;;4998177;28;20008;-79
2022/07/20 13:44:15;;;;;;;;;;;27.80;41.00;;;;;;4997288;28;19976;-79
2022/07/20 13:46:42;;;;;;;;;;;27.80;41.00;;;;;;4996395;28;20274;-79
2022/07/20 13:49:09;;;;;;;;;;;27.80;40.90;;;;;;4995496;28;20401;-80
2022/07/20 13:51:36;;;;;;;;;;;27.80;40.90;;;;;;4994988;28;19999;-79
2022/07/20 13:54:03;;;;;;;;;;;27.90;41.00;;;;;;4994631;28;19976;-79
2022/07/20 13:56:31;;;;;;;;;;;27.90;41.10;;;;;;4995605;28;20012;-80
2022/07/20 13:58:58;;;;;;;;;;;27.90;41.10;;;;;;5000076;28;19930;-81
2022/07/20 14:01:26;;;;;;;;;;;27.90;41.20;;;;;;4999278;28;20016;-81
2022/07/20 14:03:53;;;;;;;;;;;27.90;41.20;;;;;;4998925;28;20390;-81
2022/07/20 14:06:21;;;;;;;;;;;28.00;41.40;;;;;;4998816;28;20008;-81
2022/07/20 14:08:48;;;;;;;;;;;28.00;41.40;;;;;;4999022;28;19972;-81
2022/07/20 14:11:15;;;;;;;;;;;28.00;41.50;;;;;;5000347;28;20024;-85
2022/07/20 14:13:42;;;;;;;;;;;28.00;41.50;;;;;;5005245;28;19948;-85
2022/07/20 14:16:09;;;;;;;;;;;28.00;41.60;;;;;;5008992;28;19929;-86
2022/07/20 14:18:37;;;;;;;;;;;28.00;41.60;;;;;;5005739;28;19926;-86
2022/07/20 14:21:04;;;;;;;;;;;28.00;41.70;;;;;;5004471;28;20016;-85